Time;durP1;ratioP1;P1;durP2;ratioP2;P2;SDS_P1;SDS_P2;PMS_P1;PMS_P2;Temp;Humidity;BMP_temperature;BMP_pressure;BME280_temperature;BME280_humidity;BME280_pressure;Samples;Min_cycle;Max_cycle;Signal;HPM_P1;HPM_P2
2021/01/28 00:01:10;;;;;;;13.53;7.43;;;;;;;-1.16;100.00;99021.52;1747626;82;22457;-55
2021/01/28 00:03:38;;;;;;;17.93;7.47;;;;;;;-1.17;100.00;98983.39;1750353;80;21065;-55
2021/01/28 00:06:06;;;;;;;14.13;6.37;;;;;;;-1.18;100.00;98978.59;1747573;82;21030;-55
2021/01/28 00:08:35;;;;;;;14.67;8.23;;;;;;;-1.18;100.00;98982.54;1747628;82;21124;-56
2021/01/28 00:11:02;;;;;;;13.58;6.47;;;;;;;-1.20;100.00;98981.70;1747658;82;21506;-55
2021/01/28 00:13:30;;;;;;;12.87;6.43;;;;;;;-1.21;100.00;99003.63;1775361;80;22111;-55
2021/01/28 00:15:58;;;;;;;12.47;6.60;;;;;;;-1.20;100.00;99011.94;1778336;80;21149;-55
2021/01/28 00:18:26;;;;;;;17.07;8.20;;;;;;;-1.20;100.00;99006.68;1778226;80;21126;-55
2021/01/28 00:20:53;;;;;;;11.97;7.20;;;;;;;-1.19;100.00;99005.78;1778341;80;21137;-55
2021/01/28 00:23:21;;;;;;;13.45;7.22;;;;;;;-1.21;100.00;98989.16;1752812;80;21114;-55
2021/01/28 00:25:48;;;;;;;14.70;7.90;;;;;;;-1.20;100.00;98992.22;1747561;82;21434;-55
2021/01/28 00:28:19;;;;;;;12.93;6.97;;;;;;;-1.20;100.00;99000.53;1747398;82;21157;-55
2021/01/28 00:30:51;;;;;;;13.68;6.95;;;;;;;-1.20;100.00;98990.90;1747591;82;21486;-55
2021/01/28 00:33:24;;;;;;;12.03;6.37;;;;;;;-1.18;100.00;99032.50;1748930;80;21518;-55
2021/01/28 00:35:54;;;;;;;16.52;7.40;;;;;;;-1.18;100.00;99040.39;1747656;82;21477;-55
2021/01/28 00:38:35;;;;;;;15.05;6.55;;;;;;;-1.17;100.00;99009.25;1766628;80;21366;-55
2021/01/28 00:41:06;;;;;;;12.88;7.00;;;;;;;-1.18;100.00;99018.04;1776710;80;21480;-55
2021/01/28 00:43:33;;;;;;;16.37;7.37;;;;;;;-1.16;100.00;99014.05;1777229;80;21188;-55
2021/01/28 00:46:01;;;;;;;12.58;6.92;;;;;;;-1.15;100.00;99017.11;1761927;80;21078;-55
2021/01/28 00:48:28;;;;;;;12.37;6.87;;;;;;;-1.13;100.00;99024.98;1747632;82;21176;-55
2021/01/28 00:50:57;;;;;;;11.25;6.72;;;;;;;-1.12;100.00;99045.13;1747585;82;21644;-55
2021/01/28 00:53:25;;;;;;;13.10;7.00;;;;;;;-1.12;100.00;99031.98;1769752;80;20967;-55
2021/01/28 00:55:53;;;;;;;11.30;5.85;;;;;;;-1.12;100.00;99055.66;1778294;80;21160;-55
2021/01/28 00:58:24;;;;;;;14.20;7.58;;;;;;;-1.14;100.00;99032.45;1776986;80;21074;-55
2021/01/28 01:00:53;;;;;;;13.70;6.10;;;;;;;-1.11;100.00;99052.12;1778345;80;21030;-55
2021/01/28 01:03:22;;;;;;;16.93;7.33;;;;;;;-1.11;100.00;99048.19;1775815;80;21505;-55
2021/01/28 01:05:50;;;;;;;13.03;7.23;;;;;;;-1.09;100.00;99045.08;1750767;80;21077;-55
2021/01/28 01:08:29;;;;;;;14.87;8.00;;;;;;;-1.10;100.00;99032.83;1747376;81;21081;-55
2021/01/28 01:11:06;;;;;;;14.45;7.20;;;;;;;-1.08;100.00;99017.89;1747184;81;21077;-55
2021/01/28 01:13:35;;;;;;;12.30;7.37;;;;;;;-1.09;100.00;99001.69;1751339;80;21156;-55
2021/01/28 01:16:07;;;;;;;12.55;6.62;;;;;;;-1.08;100.00;98994.22;1746084;82;21388;-55
2021/01/28 01:18:37;;;;;;;14.68;8.13;;;;;;;-1.07;100.00;98967.91;1747355;81;21180;-55
2021/01/28 01:21:07;;;;;;;15.80;8.08;;;;;;;-1.07;100.00;98963.95;1747462;82;21137;-54
2021/01/28 01:23:35;;;;;;;16.17;6.97;;;;;;;-1.07;100.00;98967.02;1732676;80;21022;-55
2021/01/28 01:26:04;;;;;;;13.87;7.33;;;;;;;-1.09;100.00;98954.34;1768449;80;21132;-54
2021/01/28 01:28:32;;;;;;;13.32;5.85;;;;;;;-1.13;100.00;98929.84;1778347;80;21726;-56
2021/01/28 01:31:02;;;;;;;13.13;6.70;;;;;;;-1.14;100.00;98944.35;1777230;80;21093;-55
2021/01/28 01:33:31;;;;;;;14.43;6.97;;;;;;;-1.16;100.00;98937.36;1761446;80;21085;-54
2021/01/28 01:36:05;;;;;;;16.55;7.22;;;;;;;-1.18;100.00;98925.11;1747330;82;21149;-54
2021/01/28 01:38:35;;;;;;;14.38;7.08;;;;;;;-1.21;100.00;98941.83;1770386;80;21149;-55
2021/01/28 01:41:02;;;;;;;15.73;6.93;;;;;;;-1.24;100.00;98941.84;1777346;80;21274;-55
2021/01/28 01:43:31;;;;;;;12.45;6.60;;;;;;;-1.27;100.00;98975.23;1748036;80;21121;-55
2021/01/28 01:46:04;;;;;;;14.05;6.05;;;;;;;-1.29;100.00;99018.63;1778370;80;21070;-55
2021/01/28 01:48:40;;;;;;;15.37;8.07;;;;;;;-1.34;100.00;98992.86;1778326;80;21181;-55
2021/01/28 01:51:18;;;;;;;15.48;7.30;;;;;;;-1.31;100.00;99017.78;1748025;80;21468;-55
2021/01/28 01:53:58;;;;;;;15.28;7.87;;;;;;;-1.33;100.00;99016.51;1778245;80;21323;-55
2021/01/28 01:56:32;;;;;;;16.33;7.80;;;;;;;-1.33;100.00;99016.51;1778204;80;21145;-55
2021/01/28 01:59:19;;;;;;;13.30;6.92;;;;;;;-1.34;100.00;99020.46;1747771;80;21065;-55
2021/01/28 02:02:11;;;;;;;15.55;6.08;;;;;;;-1.33;100.00;99024.83;1773927;80;21129;-55
2021/01/28 02:05:01;;;;;;;19.13;8.47;;;;;;;-1.37;100.00;99036.28;1778365;80;21101;-56
2021/01/28 02:07:33;;;;;;;13.10;6.90;;;;;;;-1.35;100.00;99041.07;1773861;80;21555;-55
2021/01/28 02:10:22;;;;;;;13.37;7.60;;;;;;;-1.31;100.00;99029.61;1730572;82;21101;-55
2021/01/28 02:13:08;;;;;;;15.90;8.47;;;;;;;-1.30;100.00;99024.34;1727415;82;21106;-55
2021/01/28 02:15:45;;;;;;;16.47;7.87;;;;;;;-1.26;100.00;99050.13;1844771;76;22083;-55
2021/01/28 02:18:14;;;;;;;14.60;7.08;;;;;;;-1.31;100.00;99015.16;1814748;79;20876;-55
2021/01/28 02:21:06;;;;;;;14.40;6.03;;;;;;;-1.34;100.00;99018.69;1812025;79;21671;-55
2021/01/28 02:24:01;;;;;;;15.88;6.78;;;;;;;-1.33;100.00;99040.60;1786475;79;20891;-55
2021/01/28 02:26:29;;;;;;;12.80;6.67;;;;;;;-1.36;100.00;99018.30;1814676;78;21212;-55
2021/01/28 02:28:58;;;;;;;15.40;8.00;;;;;;;-1.35;100.00;99023.98;1811531;79;21057;-55
2021/01/28 02:31:27;;;;;;;12.35;6.15;;;;;;;-1.36;100.00;99029.67;1807594;78;20967;-54
2021/01/28 02:33:58;;;;;;;20.23;8.50;;;;;;;-1.37;100.00;99041.54;1752351;80;21395;-55
2021/01/28 02:36:33;;;;;;;12.93;6.40;;;;;;;-1.36;100.00;99009.95;1782024;80;20911;-55
2021/01/28 02:39:13;;;;;;;15.40;8.30;;;;;;;-1.35;100.00;99033.19;1806313;79;21146;-55
2021/01/28 02:41:47;;;;;;;17.57;7.03;;;;;;;-1.34;100.00;99034.92;1811505;78;21529;-55
2021/01/28 02:44:16;;;;;;;18.87;8.53;;;;;;;-1.35;100.00;99039.30;1813373;79;21485;-55
2021/01/28 02:47:02;;;;;;;14.97;8.30;;;;;;;-1.31;100.00;99030.93;1814682;79;21428;-54
2021/01/28 02:49:32;;;;;;;22.80;8.95;;;;;;;-1.28;100.00;99047.97;1800688;79;20990;-55
2021/01/28 02:52:01;;;;;;;19.10;8.33;;;;;;;-1.29;100.00;99042.30;1800953;79;20978;-55
2021/01/28 02:54:41;;;;;;;12.87;7.30;;;;;;;-1.26;100.00;99074.26;1782520;79;21160;-54
2021/01/28 02:57:10;;;;;;;14.00;7.17;;;;;;;-1.25;100.00;99055.81;1782544;80;21132;-55
2021/01/28 02:59:39;;;;;;;16.27;6.45;;;;;;;-1.23;100.00;99057.97;1751155;80;22132;-55
2021/01/28 03:02:13;;;;;;;14.45;7.62;;;;;;;-1.23;100.00;99064.55;1797391;79;21168;-54
2021/01/28 03:04:41;;;;;;;16.03;8.27;;;;;;;-1.21;100.00;99050.96;1814647;78;21061;-54
2021/01/28 03:07:14;;;;;;;12.47;6.45;;;;;;;-1.20;100.00;99047.44;1813871;79;21057;-54
2021/01/28 03:09:42;;;;;;;13.78;6.87;;;;;;;-1.21;100.00;99069.37;1814892;79;20967;-54
2021/01/28 03:12:17;;;;;;;12.68;7.35;;;;;;;-1.19;100.00;99051.81;1814735;79;22249;-54
2021/01/28 03:14:52;;;;;;;13.00;6.90;;;;;;;-1.18;100.00;99062.75;1813889;78;21132;-54
2021/01/28 03:17:20;;;;;;;12.73;6.97;;;;;;;-1.18;100.00;99057.92;1814863;79;21101;-54
2021/01/28 03:19:50;;;;;;;16.45;7.67;;;;;;;-1.18;100.00;99044.34;1813733;79;20939;-54
2021/01/28 03:22:20;;;;;;;14.68;7.87;;;;;;;-1.18;100.00;99048.72;1814790;78;21144;-54
2021/01/28 03:24:50;;;;;;;15.13;7.92;;;;;;;-1.16;100.00;99059.65;1813402;79;21375;-53
2021/01/28 03:27:19;;;;;;;15.75;7.95;;;;;;;-1.16;100.00;99062.28;1814193;79;21160;-53
2021/01/28 03:29:50;;;;;;;17.37;8.10;;;;;;;-1.17;100.00;99096.05;1813832;79;21073;-53
2021/01/28 03:32:19;;;;;;;14.05;7.62;;;;;;;-1.12;100.00;99068.80;1814239;79;21012;-54
2021/01/28 03:34:49;;;;;;;12.37;5.90;;;;;;;-1.11;100.00;99062.66;1814075;79;21145;-54
2021/01/28 03:37:17;;;;;;;15.70;8.10;;;;;;;-1.12;100.00;99062.23;1807416;79;21189;-54
2021/01/28 03:39:50;;;;;;;15.20;7.95;;;;;;;-1.08;100.00;99058.23;1781580;80;21144;-54
2021/01/28 03:42:17;;;;;;;14.00;7.72;;;;;;;-1.05;100.00;99032.30;1782218;80;21024;-53
2021/01/28 03:44:45;;;;;;;13.28;7.30;;;;;;;-1.04;100.00;99068.23;1782008;80;21068;-54
2021/01/28 03:47:13;;;;;;;12.20;6.90;;;;;;;-1.03;100.00;99071.29;1782223;80;21040;-54
2021/01/28 03:49:42;;;;;;;14.15;6.97;;;;;;;-1.05;100.00;99088.86;1777268;80;21201;-54
2021/01/28 03:52:15;;;;;;;13.88;7.85;;;;;;;-1.04;100.00;99079.64;1781639;80;21066;-54
2021/01/28 03:54:45;;;;;;;14.35;8.00;;;;;;;-1.03;100.00;99084.02;1777910;80;21121;-54
2021/01/28 03:57:17;;;;;;;15.72;6.67;;;;;;;-1.00;100.00;99113.33;1780475;80;21093;-54
2021/01/28 03:59:53;;;;;;;15.55;7.42;;;;;;;-0.98;100.00;99099.73;1781348;80;21041;-54
2021/01/28 04:02:22;;;;;;;14.85;7.20;;;;;;;-0.99;100.00;99116.42;1777842;80;21942;-55
2021/01/28 04:04:58;;;;;;;15.05;7.33;;;;;;;-0.96;100.00;99099.27;1744369;80;21163;-54
2021/01/28 04:07:30;;;;;;;14.83;8.18;;;;;;;-0.94;100.00;99097.48;1777525;80;21010;-54
2021/01/28 04:09:57;;;;;;;13.55;6.37;;;;;;;-0.93;100.00;99091.33;1782113;80;21061;-54
2021/01/28 04:12:27;;;;;;;15.45;7.85;;;;;;;-0.93;100.00;99075.54;1782079;79;21084;-54
2021/01/28 04:14:59;;;;;;;12.40;6.40;;;;;;;-0.92;100.00;99101.39;1782609;79;22273;-55
2021/01/28 04:17:27;;;;;;;14.50;7.78;;;;;;;-0.92;100.00;99097.01;1782108;79;21062;-55
2021/01/28 04:19:57;;;;;;;12.70;6.70;;;;;;;-0.89;100.00;99107.48;1780457;80;20997;-55
2021/01/28 04:22:24;;;;;;;13.58;7.12;;;;;;;-0.89;100.00;99096.96;1782175;80;21014;-54
2021/01/28 04:24:54;;;;;;;15.23;7.30;;;;;;;-0.88;100.00;99101.33;1781487;80;20981;-55
2021/01/28 04:27:22;;;;;;;12.47;7.17;;;;;;;-0.85;100.00;99100.86;1782107;80;21672;-54
2021/01/28 04:29:51;;;;;;;14.58;7.58;;;;;;;-0.85;100.00;99100.42;1780649;80;20994;-54
2021/01/28 04:32:21;;;;;;;14.93;7.25;;;;;;;-0.84;100.00;99110.48;1781728;80;20990;-54
2021/01/28 04:35:05;;;;;;;13.70;7.35;;;;;;;-0.84;100.00;99121.90;1777563;80;21081;-54
2021/01/28 04:37:33;;;;;;;16.12;7.95;;;;;;;-0.80;100.00;99135.86;1792326;79;21053;-54
2021/01/28 04:40:19;;;;;;;15.60;8.43;;;;;;;-0.79;100.00;99135.85;1814032;78;21388;-54
2021/01/28 04:42:48;;;;;;;16.57;6.50;;;;;;;-0.78;100.00;99120.48;1814142;79;21038;-55
2021/01/28 04:45:21;;;;;;;12.95;7.35;;;;;;;-0.77;100.00;99138.48;1813883;79;20891;-55
2021/01/28 04:47:56;;;;;;;15.23;8.20;;;;;;;-0.76;100.00;99122.64;1814113;79;21132;-54
2021/01/28 04:50:34;;;;;;;14.13;8.33;;;;;;;-0.76;100.00;99113.90;1786171;79;21148;-55
2021/01/28 04:53:25;;;;;;;13.93;7.83;;;;;;;-0.76;100.00;99123.11;1812672;79;21377;-54
2021/01/28 04:55:55;;;;;;;17.20;9.70;;;;;;;-0.77;100.00;99124.00;1810827;79;21081;-54
2021/01/28 04:58:23;;;;;;;17.73;9.70;;;;;;;-0.79;100.00;99139.80;1782770;79;21739;-54
2021/01/28 05:00:52;;;;;;;18.35;10.13;;;;;;;-0.78;100.00;99144.17;1812563;79;21121;-54
2021/01/28 05:03:40;;;;;;;19.35;10.55;;;;;;;-0.78;100.00;99141.53;1814149;79;21133;-54
2021/01/28 05:06:09;;;;;;;17.35;10.08;;;;;;;-0.78;100.00;99152.49;1792445;79;21775;-54
2021/01/28 05:08:42;;;;;;;19.32;11.95;;;;;;;-0.79;100.00;99155.59;1814069;79;21140;-54
2021/01/28 05:11:33;;;;;;;23.85;12.65;;;;;;;-0.78;100.00;99163.02;1814224;79;21093;-54
2021/01/28 05:14:28;;;;;;;23.73;13.15;;;;;;;-0.78;100.00;99149.86;1814036;79;21156;-54
2021/01/28 05:17:19;;;;;;;25.35;13.03;;;;;;;-0.77;100.00;99155.58;1827405;78;20906;-54
2021/01/28 05:20:10;;;;;;;26.40;15.08;;;;;;;-0.79;100.00;99158.65;1834802;78;21194;-53
2021/01/28 05:23:01;;;;;;;27.27;14.70;;;;;;;-0.73;100.00;99165.16;1888191;76;22500;-53
2021/01/28 05:25:35;;;;;;;28.75;15.03;;;;;;;-0.76;100.00;99153.38;1842989;77;20991;-54
2021/01/28 05:28:37;;;;;;;28.67;15.53;;;;;;;-0.75;100.00;99177.48;1847864;77;21362;-53
2021/01/28 05:31:30;;;;;;;30.32;16.57;;;;;;;-0.75;100.00;99165.64;1849331;77;21007;-53
2021/01/28 05:34:13;;;;;;;29.87;16.23;;;;;;;-0.75;100.00;99173.07;1802931;77;21023;-53
2021/01/28 05:36:53;;;;;;;32.15;16.25;;;;;;;-0.74;100.00;99170.01;1844750;77;20979;-53
2021/01/28 05:39:33;;;;;;;32.45;17.00;;;;;;;-0.74;100.00;99160.33;1816097;78;20994;-53
2021/01/28 05:42:26;;;;;;;32.13;17.07;;;;;;;-0.73;100.00;99167.33;1816031;79;22257;-54
2021/01/28 05:44:56;;;;;;;32.25;16.50;;;;;;;-0.71;100.00;99180.48;1814903;79;21072;-53
2021/01/28 05:47:33;;;;;;;31.65;17.12;;;;;;;-0.71;100.00;99180.48;1815915;79;20974;-53
2021/01/28 05:50:29;;;;;;;31.60;16.65;;;;;;;-0.70;100.00;99180.91;1794961;79;21172;-54
2021/01/28 05:53:15;;;;;;;35.68;16.65;;;;;;;-0.67;100.00;99199.29;1786753;79;21060;-54
2021/01/28 05:55:45;;;;;;;32.50;16.20;;;;;;;-0.65;100.00;99192.70;1815976;79;21362;-54
2021/01/28 05:58:50;;;;;;;34.20;17.77;;;;;;;-0.59;100.00;99224.19;1873245;76;22365;-53
2021/01/28 06:01:46;;;;;;;39.95;19.07;;;;;;;-0.63;100.00;99223.35;1841264;78;21511;-55
2021/01/28 06:05:07;;;;;;;34.98;18.55;;;;;;;-0.61;100.00;99243.94;1836742;78;21361;-53
2021/01/28 06:08:08;;;;;;;35.50;18.52;;;;;;;-0.58;100.00;99253.11;1759600;81;21093;-53
2021/01/28 06:11:13;;;;;;;35.43;16.93;;;;;;;-0.54;100.00;99240.79;1840598;78;20926;-52
2021/01/28 06:14:31;;;;;;;35.60;18.25;;;;;;;-0.50;100.00;99238.99;1839161;78;21420;-53
2021/01/28 06:17:26;;;;;;;38.02;18.55;;;;;;;-0.45;100.00;99241.11;1813521;79;21079;-52
2021/01/28 06:20:34;;;;;;;36.57;18.30;;;;;;;-0.36;100.00;99230.89;1873214;76;21878;-53
2021/01/28 06:23:11;;;;;;;36.40;19.10;;;;;;;-0.39;100.00;99213.36;1841128;78;21017;-53
2021/01/28 06:26:34;;;;;;;35.43;17.45;;;;;;;-0.38;100.00;99207.20;1838719;78;21264;-53
2021/01/28 06:29:27;;;;;;;35.45;18.00;;;;;;;-0.36;100.00;99187.44;1840659;78;21080;-53
2021/01/28 06:32:16;;;;;;;33.08;17.77;;;;;;;-0.37;100.00;99173.39;1841011;78;20982;-54
2021/01/28 06:35:34;;;;;;;32.53;16.07;;;;;;;-0.38;100.00;99167.70;1841036;78;21005;-54
2021/01/28 06:38:50;;;;;;;28.42;16.00;;;;;;;-0.41;100.00;99155.91;1832737;78;20912;-54
2021/01/28 06:41:41;;;;;;;32.58;15.98;;;;;;;-0.38;100.00;99142.68;1798517;78;21404;-54
2021/01/28 06:44:18;;;;;;;29.85;15.63;;;;;;;-0.36;100.00;99147.48;1827304;78;20955;-54
2021/01/28 06:47:00;;;;;;;27.32;15.00;;;;;;;-0.35;100.00;99128.61;1775285;77;21087;-54
2021/01/28 06:50:01;;;;;;;26.90;14.50;;;;;;;-0.34;100.00;99120.66;1797308;78;21066;-55
2021/01/28 06:52:48;;;;;;;28.98;15.45;;;;;;;-0.31;100.00;99132.48;1827723;78;21122;-55
2021/01/28 06:55:41;;;;;;;26.00;13.80;;;;;;;-0.30;100.00;99136.86;1811824;78;21181;-55
2021/01/28 06:58:52;;;;;;;23.07;12.93;;;;;;;-0.26;100.00;99149.98;1828033;78;20980;-55
2021/01/28 07:01:37;;;;;;;23.75;13.25;;;;;;;-0.22;100.00;99152.98;1828186;78;20920;-55
2021/01/28 07:04:27;;;;;;;24.37;13.20;;;;;;;-0.18;100.00;99177.94;1826734;78;21106;-55
2021/01/28 07:07:14;;;;;;;26.07;14.55;;;;;;;-0.13;100.00;99185.73;1826526;78;21055;-55
2021/01/28 07:10:13;;;;;;;23.65;13.85;;;;;;;-0.08;100.00;99202.36;1819803;78;21362;-55
2021/01/28 07:13:00;;;;;;;24.35;13.93;;;;;;;-0.03;100.00;99218.96;1828005;78;20893;-54
2021/01/28 07:15:35;;;;;;;27.52;13.98;;;;;;;0.03;100.00;99231.61;1782681;78;21212;-55
2021/01/28 07:18:14;;;;;;;22.67;13.62;;;;;;;0.06;100.00;99250.00;1827196;78;21059;-56
2021/01/28 07:21:02;;;;;;;;;;;;;;;0.07;100.00;99242.08;1845541;77;21143;-55
2021/01/28 07:23:37;;;;;;;22.73;12.98;;;;;;;0.09;100.00;99241.61;1849905;77;21359;-55
2021/01/28 07:26:17;;;;;;;20.85;11.75;;;;;;;0.12;100.00;99247.28;1849996;77;21494;-55
2021/01/28 07:28:46;;;;;;;24.57;13.65;;;;;;;0.16;100.00;99239.75;1849909;77;21108;-55
2021/01/28 07:31:41;;;;;;;22.52;12.63;;;;;;;0.19;100.00;99250.23;1849267;77;20982;-56
2021/01/28 07:34:14;;;;;;;21.62;12.43;;;;;;;0.22;100.00;99268.63;1849491;77;21020;-55
2021/01/28 07:36:59;;;;;;;;;;;;;;;0.24;100.00;99252.34;1851119;77;21032;-54
2021/01/28 07:39:45;;;;;;;26.48;14.20;;;;;;;0.28;100.00;99260.61;1833227;77;20229;-54
2021/01/28 07:42:31;;;;;;;25.40;13.53;;;;;;;0.30;100.00;99258.39;1833410;78;20920;-54
2021/01/28 07:45:33;;;;;;;23.95;13.78;;;;;;;0.32;100.00;99250.01;1833386;78;21114;-55
2021/01/28 07:48:13;;;;;;;24.43;13.38;;;;;;;0.37;100.00;99250.83;1831518;77;21154;-54
2021/01/28 07:50:42;;;;;;;24.77;14.05;;;;;;;0.40;100.00;99261.31;1811476;78;22105;-54
2021/01/28 07:53:36;;;;;;;24.67;13.83;;;;;;;0.42;100.00;99251.14;1837953;77;21061;-54
2021/01/28 07:56:05;;;;;;;23.83;13.25;;;;;;;0.48;100.00;99259.41;1815860;79;21127;-54
2021/01/28 07:58:34;;;;;;;22.62;13.10;;;;;;;0.51;100.00;99251.43;1815801;79;21024;-54
2021/01/28 08:01:13;;;;;;;23.65;13.53;;;;;;;0.56;100.00;99252.67;1815842;79;21171;-55
2021/01/28 08:03:48;;;;;;;19.42;11.22;;;;;;;0.58;100.00;99256.62;1791344;79;22014;-55
2021/01/28 08:06:16;;;;;;;20.08;12.28;;;;;;;0.59;100.00;99262.31;1815506;79;20961;-55
2021/01/28 08:08:45;;;;;;;22.80;12.37;;;;;;;0.58;100.00;99283.84;1816063;79;21530;-55
2021/01/28 08:11:19;;;;;;;19.42;10.90;;;;;;;0.59;100.00;99279.45;1815893;79;21143;-55
2021/01/28 08:13:55;;;;;;;19.80;11.15;;;;;;;0.60;100.00;99274.60;1816102;79;20918;-56
2021/01/28 08:16:23;;;;;;;18.60;11.03;;;;;;;0.63;100.00;99263.99;1815846;79;21135;-56
2021/01/28 08:19:08;;;;;;;16.77;10.40;;;;;;;0.63;100.00;99283.77;1814198;79;21015;-56
2021/01/28 08:21:37;;;;;;;19.10;10.48;;;;;;;0.65;100.00;99279.34;1807324;79;20945;-57
2021/01/28 08:24:34;;;;;;;17.75;10.85;;;;;;;0.67;100.00;99281.50;1807346;79;21005;-57
2021/01/28 08:26:51;;;;;;;18.17;10.48;;;;;;;0.69;100.00;99283.66;1805148;79;21069;-57
2021/01/28 08:29:21;;;;;;;15.83;9.68;;;;;;;0.70;100.00;99279.69;1807362;79;21351;-57
2021/01/28 08:31:53;;;;;;;15.28;9.90;;;;;;;0.73;100.00;99293.25;1807360;79;21080;-57
2021/01/28 08:34:27;;;;;;;19.10;10.05;;;;;;;0.74;100.00;99292.34;1807343;79;21151;-57
2021/01/28 08:36:58;;;;;;;14.95;9.03;;;;;;;0.75;100.00;99315.19;1808754;78;21560;-57
2021/01/28 08:39:33;;;;;;;26.87;9.45;;;;;;;0.76;100.00;99298.93;1809151;78;21197;-59
2021/01/28 08:42:14;;;;;;;15.88;8.90;;;;;;;0.75;100.00;99307.28;1827504;78;21190;-59
2021/01/28 08:44:46;;;;;;;15.03;8.70;;;;;;;0.75;100.00;99319.16;1827480;78;21027;-59
2021/01/28 08:47:20;;;;;;;13.00;7.25;;;;;;;0.71;100.00;99308.23;1827312;78;21149;-59
2021/01/28 08:50:15;;;;;;;13.43;7.25;;;;;;;0.72;100.00;99323.17;1827448;78;20920;-59
2021/01/28 08:52:43;;;;;;;12.20;6.80;;;;;;;0.72;100.00;99321.84;1795776;78;21181;-59
2021/01/28 08:55:23;;;;;;;11.57;6.78;;;;;;;0.70;100.00;99319.69;1827471;78;21189;-60
2021/01/28 08:57:52;;;;;;;13.78;7.40;;;;;;;0.71;100.00;99328.02;1810909;78;21124;-60
2021/01/28 09:00:21;;;;;;;11.43;7.22;;;;;;;0.67;100.00;99310.52;1827411;78;20956;-61
2021/01/28 09:02:52;;;;;;;10.43;6.67;;;;;;;0.67;100.00;99323.70;1827439;78;21090;-61
2021/01/28 09:05:33;;;;;;;11.63;6.80;;;;;;;0.64;100.00;99323.76;1827439;78;21467;-61
2021/01/28 09:08:04;;;;;;;13.18;6.97;;;;;;;0.62;100.00;99311.05;1827552;78;21769;-62
2021/01/28 09:10:40;;;;;;;10.93;7.15;;;;;;;0.59;100.00;99319.02;1809482;78;20952;-62
2021/01/28 09:13:25;;;;;;;11.85;7.00;;;;;;;0.57;100.00;99319.03;1827494;78;21042;-63
2021/01/28 09:16:15;;;;;;;14.87;8.63;;;;;;;0.56;100.00;99315.54;1827402;78;21022;-63
2021/01/28 09:18:49;;;;;;;13.65;8.50;;;;;;;0.59;100.00;99328.25;1827335;78;20980;-63
2021/01/28 09:21:22;;;;;;;14.65;8.05;;;;;;;0.62;100.00;99308.41;1830389;78;21119;-64
2021/01/28 09:24:00;;;;;;;14.18;8.53;;;;;;;0.65;100.00;99309.67;1830271;78;20936;-65
2021/01/28 09:26:32;;;;;;;15.38;8.68;;;;;;;0.68;100.00;99297.75;1830458;77;20917;-65
2021/01/28 09:29:22;;;;;;;13.93;7.78;;;;;;;0.71;100.00;99300.32;1830282;77;20995;-64
2021/01/28 09:31:50;;;;;;;14.20;8.13;;;;;;;0.73;100.00;99291.92;1830517;78;21475;-64
2021/01/28 09:34:27;;;;;;;16.73;8.78;;;;;;;0.74;100.00;99296.30;1830295;77;21360;-63
2021/01/28 09:37:19;;;;;;;15.03;8.83;;;;;;;0.76;100.00;99310.34;1830193;78;21173;-63
2021/01/28 09:39:51;;;;;;;19.48;9.83;;;;;;;0.77;100.00;99292.28;1830098;78;21997;-62
2021/01/28 09:42:33;;;;;;;14.00;7.95;;;;;;;0.81;100.00;99294.43;1829953;78;21118;-61
2021/01/28 09:45:11;;;;;;;18.15;9.20;;;;;;;0.84;100.00;99295.69;1830156;78;21047;-61
2021/01/28 09:47:39;;;;;;;15.53;8.80;;;;;;;0.85;100.00;99278.95;1830016;78;22263;-61
2021/01/28 09:50:11;;;;;;;17.20;9.38;;;;;;;0.85;100.00;99285.13;1744171;78;20948;-60
2021/01/28 09:52:41;;;;;;;13.98;8.20;;;;;;;0.87;100.00;99300.05;1830064;78;21478;-60
2021/01/28 09:55:13;;;;;;;16.17;8.85;;;;;;;0.90;100.00;99299.98;1830017;78;20864;-60
2021/01/28 09:57:42;;;;;;;12.47;7.90;;;;;;;0.88;100.00;99301.80;1830086;78;21098;-60
2021/01/28 10:00:15;;;;;;;12.15;7.10;;;;;;;0.90;100.00;99290.33;1830010;78;21343;-60
2021/01/28 10:02:56;;;;;;;10.30;6.60;;;;;;;0.89;100.00;99287.70;1829925;78;21145;-61
2021/01/28 10:05:27;;;;;;;13.58;7.80;;;;;;;0.85;100.00;99282.48;1829981;78;21550;-61
2021/01/28 10:07:56;;;;;;;12.88;6.95;;;;;;;0.84;100.00;99301.85;1830044;78;21551;-59
2021/01/28 10:10:27;;;;;;;11.10;6.50;;;;;;;0.81;100.00;99289.16;1830001;78;21102;-60
2021/01/28 10:12:58;;;;;;;10.72;6.92;;;;;;;0.77;100.00;99292.28;1829993;77;21175;-59
2021/01/28 10:15:25;;;;;;;10.93;6.75;;;;;;;0.77;100.00;99290.97;1829979;78;21015;-61
2021/01/28 10:17:53;;;;;;;10.80;6.40;;;;;;;0.75;100.00;99303.32;1830026;78;21096;-59
2021/01/28 10:20:23;;;;;;;11.80;7.05;;;;;;;0.75;100.00;99309.91;1826953;77;20983;-61
2021/01/28 10:22:51;;;;;;;11.48;6.28;;;;;;;0.76;100.00;99312.98;1824287;77;21142;-60
2021/01/28 10:25:21;;;;;;;10.58;6.78;;;;;;;0.76;100.00;99319.57;1824192;78;21290;-60
2021/01/28 10:27:50;;;;;;;12.43;6.45;;;;;;;0.77;100.00;99325.73;1824266;78;21040;-60
2021/01/28 10:30:20;;;;;;;9.88;6.17;;;;;;;0.78;100.00;99321.77;1824172;78;20929;-60
2021/01/28 10:32:51;;;;;;;10.45;6.00;;;;;;;0.79;100.00;99326.14;1824251;78;20932;-59
2021/01/28 10:35:23;;;;;;;8.25;5.53;;;;;;;0.80;100.00;99308.09;1824219;78;21027;-60
2021/01/28 10:37:51;;;;;;;9.90;6.08;;;;;;;0.79;100.00;99324.82;1824200;78;21340;-59
2021/01/28 10:40:19;;;;;;;10.30;6.08;;;;;;;0.83;100.00;99355.95;1824142;77;20951;-58
2021/01/28 10:42:47;;;;;;;7.95;5.45;;;;;;;0.84;100.00;99367.82;1824238;78;21035;-59
2021/01/28 10:45:20;;;;;;;7.58;4.95;;;;;;;0.88;100.00;99359.84;1824269;78;21051;-59
2021/01/28 10:47:51;;;;;;;16.52;5.08;;;;;;;0.88;100.00;99344.86;1824165;78;21027;-59
2021/01/28 10:50:24;;;;;;;7.87;5.20;;;;;;;0.90;100.00;99347.49;1823179;78;21435;-58
2021/01/28 10:52:52;;;;;;;6.20;4.95;;;;;;;0.90;100.00;99367.28;1824134;77;21146;-58
2021/01/28 10:55:21;;;;;;;11.65;5.17;;;;;;;0.87;100.00;99358.95;1824254;78;21051;-58
2021/01/28 10:57:49;;;;;;;7.67;5.15;;;;;;;0.85;100.00;99347.13;1824293;78;21495;-57
2021/01/28 11:00:17;;;;;;;9.95;5.25;;;;;;;0.82;100.00;99363.02;1824234;78;21171;-58
2021/01/28 11:02:45;;;;;;;8.20;5.20;;;;;;;0.80;100.00;99370.53;1824342;78;22175;-58
2021/01/28 11:05:24;;;;;;;8.63;5.47;;;;;;;0.76;100.00;99382.89;1824095;78;21181;-59
2021/01/28 11:07:52;;;;;;;7.17;5.17;;;;;;;0.75;100.00;99364.00;1824179;78;21149;-59
2021/01/28 11:10:23;;;;;;;8.33;5.35;;;;;;;0.72;100.00;99391.76;1824289;78;21459;-58
2021/01/28 11:12:51;;;;;;;8.40;5.58;;;;;;;0.71;100.00;99393.98;1824509;78;21043;-59
2021/01/28 11:15:21;;;;;;;10.48;5.75;;;;;;;0.70;100.00;99400.15;1824335;78;21378;-58
2021/01/28 11:17:50;;;;;;;11.63;6.87;;;;;;;0.71;100.00;99413.76;1824275;78;21111;-59
2021/01/28 11:20:19;;;;;;;12.05;6.40;;;;;;;0.72;100.00;99408.91;1826568;78;21145;-58
2021/01/28 11:22:47;;;;;;;13.35;5.72;;;;;;;0.74;100.00;99420.30;1830383;78;21082;-58
2021/01/28 11:25:19;;;;;;;10.75;6.60;;;;;;;0.75;100.00;99424.68;1830504;78;21575;-60
2021/01/28 11:27:49;;;;;;;10.25;6.97;;;;;;;0.73;100.00;99418.56;1825954;78;22160;-60
2021/01/28 11:30:20;;;;;;;11.15;6.58;;;;;;;0.73;100.00;99426.48;1813342;77;21464;-60
2021/01/28 11:32:48;;;;;;;11.65;6.58;;;;;;;0.73;100.00;99431.75;1819105;78;21040;-61
2021/01/28 11:35:19;;;;;;;9.03;6.05;;;;;;;0.73;100.00;99435.71;1831555;78;21503;-60
2021/01/28 11:37:47;;;;;;;9.30;6.22;;;;;;;0.75;100.00;99423.36;1831286;78;21090;-61
2021/01/28 11:40:19;;;;;;;8.48;6.25;;;;;;;0.73;100.00;99425.16;1830274;78;21200;-61
2021/01/28 11:42:47;;;;;;;8.20;5.95;;;;;;;0.74;100.00;99441.41;1830196;78;21118;-62
2021/01/28 11:45:15;;;;;;;9.83;6.30;;;;;;;0.75;100.00;99433.06;1830414;78;21581;-62
2021/01/28 11:47:43;;;;;;;9.45;6.22;;;;;;;0.74;100.00;99445.83;1830321;78;21586;-62
2021/01/28 11:50:14;;;;;;;8.58;6.28;;;;;;;0.76;100.00;99451.48;1830369;78;21569;-63
2021/01/28 11:52:42;;;;;;;7.35;5.37;;;;;;;0.76;100.00;99446.21;1830294;78;21405;-61
2021/01/28 11:55:13;;;;;;;9.03;6.15;;;;;;;0.76;100.00;99458.08;1830236;77;21082;-62
2021/01/28 11:57:41;;;;;;;9.90;6.45;;;;;;;0.77;100.00;99458.97;1830360;78;21209;-62
2021/01/28 12:00:10;;;;;;;7.65;5.40;;;;;;;0.77;100.00;99451.91;1817600;78;21445;-61